Tiempo atmosférico en la estación meteorológica de Doña Mencia, Córdoba (650 m.)



Fecha
DESCASC
Temp. máxima en grados centígrados (hora)
DESCASC
Temp. mínima en grados centígrados (hora)
DESCASC
Temp. media en grados centígrados
DESCASC
Racha de viento máxima en m/sg (hora)
DESCASC
Velocidad máxima media en intervalos de 10 minutos(hora)
DESCASC
Precipitaciones diarias en mm
DESCASC
Precipitaciones de 00:00 a 06:00 en mm
DESCASC
Precipitaciones de 06:00 a 12:00 en mm
DESCASC
Precipitaciones de 12:00 a 18:00 en mm
DESCASC
Precipitaciones de 18:00 a 24:00 en mm
DESCASC
06-07-2020 39.1 (18:30) 23 (05:20) 31 11.67 (23:20) 6.11 (23:20) 0 0 0 0 0
05-07-2020 36.9 (17:10) 22.2 (06:40) 29.6 8.89 (15:10) 5.28 (08:40) 0 0 0 0 0
04-07-2020 35.6 (18:50) 20.3 (08:30) 27.9 6.67 (16:00) 3.89 (21:10) 0 0 0 0 0
03-07-2020 33 (18:10) 18.8 (08:00) 25.9 9.17 (00:10) 5 (00:10) 0 0 0 0 0
02-07-2020 33.1 (17:40) 20.2 (00:00) 26.6 12.5 (17:20) 5.28 (16:50) 0 0 0 0 0
01-07-2020 34.2 (17:40) 19.8 (00:00) 27 8.33 (17:40) 5 (18:20) 0 0 0 0 0
30-06-2020 36.1 (17:30) 21.9 (00:00) 29 10 (17:00) 5 (16:50) 0 0 0 0 0
29-06-2020 37.3 (17:40) 23.9 (00:00) 30.6 7.5 (17:00) 4.44 (16:20) 0 0 0 0 0
28-06-2020 35.5 (18:00) 20.5 (00:00) 28 8.33 (19:30) 3.89 (00:20) 0 0 0 0 0
27-06-2020 32.1 (18:50) 16.8 (00:00) 24.4 7.22 (01:30) 4.17 (00:30) 0 0 0 0 0
26-06-2020 29 (17:50) 17.2 (00:00) 23.1 9.17 (22:50) 5.56 (23:30) 0 0 0 0 0
25-06-2020 32.5 (17:20) 19.5 (00:00) 26 8.89 (17:40) 5.28 (21:50) 0 0 0 0 0
24-06-2020 35.4 (17:50) 22.3 (00:00) 28.9 8.61 (19:20) 4.72 (19:50) 0 0 0 0 0
23-06-2020 36.8 (17:20) 23.1 (00:00) 29.9 10.56 (17:40) 6.39 (17:40) 0 0 0 0 0
22-06-2020 36.3 (16:10) 24.2 (00:00) 30.3 8.89 (16:40) 5 (17:10) 0 0 0 0 0
21-06-2020 35 (19:40) 21.1 (00:00) 28.1 8.33 (14:50) 3.33 (02:10) 0 0 0 0 0
20-06-2020 32.5 (18:00) 18.8 (00:00) 25.6 8.06 (16:40) 4.17 (16:40) 0 0 0 0 0
19-06-2020 28.8 (17:30) 16 (00:00) 22.4 7.78 (00:50) 5 (00:40) 0 0 0 0 0
18-06-2020 28.7 (17:10) 16.3 (00:00) 22.5 10.56 (19:40) 5.56 (19:30) 0 0 0 0 0
17-06-2020 27.4 (18:00) 15.8 (00:00) 21.6 9.72 (16:50) 5.56 (16:50) 0 0 0 0 0
16-06-2020 27 (17:10) 15.1 (00:00) 21.1 11.67 (19:40) 7.22 (20:20) 0 0 0 0 0
15-06-2020 27.2 (17:50) 13.7 (00:00) 20.5 9.17 (16:00) 5.56 (19:00) 0 0 0 0 0
14-06-2020 26 (17:00) 13.9 (00:00) 19.9 9.17 (21:20) 5.83 (21:00) 0 0 0 0 0
13-06-2020 23.5 (16:50) 12.3 (00:00) 17.9 12.22 (01:10) 6.39 (02:10) 0 0 0 0 0
12-06-2020 20.6 (17:30) 12.4 (00:00) 16.5 12.78 (02:10) 7.5 (02:20) 2.2 2.2 0 0 0
11-06-2020 22.9 (16:50) 14.8 (00:00) 18.8 15.28 (20:40) 8.89 (19:50) 0 0 0 0 0
10-06-2020 27.4 (16:20) 16.2 (00:00) 21.8 10.56 (23:30) 6.11 (22:50) 0 0 0 0 0

Gráficas

Temp. máximas Temp. mínimas Temp. medias Precipitaciones Rachas de viento máximas Velocidades máximas media en intervalos de 10 minutos

Datos horarios

Fecha y hora oficial Temperatura (ºC) Velocidad del viento (km/h) Dirección del viento Racha (km/h) Dirección de racha Precipitación (mm) Presión (hPa) Tendencia (hPa) Humedad (%)
2020-07-09 23:00:00 25.9 10 Noroeste 18 Noroeste 0 -- -- 37
2020-07-09 22:00:00 26.7 5 Oeste 19 Noroeste 0 -- -- 35
2020-07-09 21:00:00 29.3 14 Noroeste 27 Noroeste 0 -- -- 32
2020-07-09 20:00:00 30.5 18 Oeste 31 Oeste 0 -- -- 32
2020-07-09 19:00:00 31.5 16 Noroeste 28 Noroeste 0 -- -- 32
2020-07-09 18:00:00 32.1 15 Oeste 30 Noroeste 0 -- -- 37
2020-07-09 17:00:00 32.3 8 Noroeste 24 Oeste 0 -- -- 37
2020-07-09 16:00:00 32 10 Noroeste 25 Oeste 0 -- -- 38
2020-07-09 15:00:00 30 10 Oeste 24 Noroeste 0 -- -- 40
2020-07-09 14:00:00 29 10 Noroeste 22 Noroeste 0 -- -- 43
2020-07-09 13:00:00 27.7 3 Norte 16 Noroeste 0 -- -- 46
2020-07-09 12:00:00 26.3 3 Norte 15 Sudeste 0 -- -- 49
2020-07-09 11:00:00 24.5 2 Oeste 15 Sudeste 0 -- -- 56
2020-07-09 10:00:00 22.1 3 Sudoeste 8 Sudoeste 0 -- -- 60
2020-07-09 09:00:00 20.6 2 Sudeste 9 Noroeste 0 -- -- 61
2020-07-09 08:00:00 19.6 3 Noroeste 19 Este 0 -- -- 59
2020-07-09 07:00:00 18.9 6 Este 11 Este 0 -- -- 59
2020-07-09 06:00:00 20.3 3 Norte 10 Este 0 -- -- 55
2020-07-09 05:00:00 21.2 0 Calma 6 Este 0 -- -- 50
2020-07-09 04:00:00 21.3 2 Sudeste 6 Sudeste 0 -- -- 49
2020-07-09 03:00:00 21.7 0 Calma 14 Norte 0 -- -- 48
2020-07-09 02:00:00 22.8 9 Norte 22 Noroeste 0 -- -- 46
2020-07-09 01:00:00 23.3 15 Noroeste 24 Noroeste 0 -- -- 43
2020-07-09 00:00:00 24.1 15 Noroeste 31 Oeste 0 -- -- 39
2020-07-08 23:00:00 25.4 17 Oeste 31 Oeste 0 -- -- 36
2020-07-08 22:00:00 27.4 15 Oeste 33 Oeste 0 -- -- 36
2020-07-08 21:00:00 30.3 19 Oeste 34 Oeste 0 -- -- 33
2020-07-08 20:00:00 33.1 15 Oeste 34 Oeste 0 -- -- 29
2020-07-08 19:00:00 32.5 19 Oeste 34 Oeste 0 -- -- 29
2020-07-08 18:00:00 33.7 19 Oeste 41 Oeste 0 -- -- 28
2020-07-08 17:00:00 33.8 23 Oeste 43 Oeste 0 -- -- 28
2020-07-08 16:00:00 34.2 25 Oeste 41 Oeste 0 -- -- 29
2020-07-08 15:00:00 35.1 18 Oeste 32 Oeste 0 -- -- 29
2020-07-08 14:00:00 34.7 17 Oeste 30 Noroeste 0 -- -- 29
2020-07-08 13:00:00 33.3 17 Oeste 27 Oeste 0 -- -- 32
2020-07-08 12:00:00 31 18 Noroeste 29 Oeste 0 -- -- 34
2020-07-08 11:00:00 30.5 14 Noroeste 29 Noroeste 0 -- -- 34
2020-07-08 10:00:00 32.9 3 Nordeste 24 Sur 0 -- -- 30
2020-07-08 09:00:00 29.5 8 Sudeste 14 Noroeste 0 -- -- 33
2020-07-08 08:00:00 29.9 6 Noroeste 23 Sudeste 0 -- -- 31
2020-07-08 07:00:00 28.8 4 Noroeste 15 Noroeste 0 -- -- 31
2020-07-08 06:00:00 29.4 3 Noroeste 14 Este 0 -- -- 30
2020-07-08 05:00:00 31.4 6 Este 15 Norte 0 -- -- 29
2020-07-08 04:00:00 30.3 5 Sudeste 8 Este 0 -- -- 29
2020-07-08 03:00:00 31.2 2 Noroeste 17 Oeste 0 -- -- 28
2020-07-08 02:00:00 31.8 17 Norte 33 Noroeste 0 -- -- 28
2020-07-08 01:00:00 32.4 4 Sudoeste 21 Oeste 0 -- -- 27
2020-07-08 00:00:00 32.9 13 Oeste 26 Oeste 0 -- -- 27
2020-07-07 23:00:00 33.1 9 Oeste 19 Oeste 0 -- -- 27
2020-07-07 22:00:00 33.4 9 Oeste 22 Oeste 0 -- -- 28
2020-07-07 21:00:00 34.5 8 Oeste 17 Oeste 0 -- -- 28
2020-07-07 20:00:00 37 12 Oeste 23 Oeste 0 -- -- 26
2020-07-07 19:00:00 38.1 14 Oeste 25 Noroeste 0 -- -- 26
2020-07-07 18:00:00 38.8 14 Oeste 33 Noroeste 0 -- -- 25
2020-07-07 17:00:00 38.2 16 Noroeste 30 Oeste 0 -- -- 26
2020-07-07 16:00:00 37.8 15 Noroeste 36 Oeste 0 -- -- 26
2020-07-07 15:00:00 37.7 12 Oeste 23 Noroeste 0 -- -- 28
2020-07-07 14:00:00 36.8 8 Oeste 17 Noroeste 0 -- -- 29
2020-07-07 13:00:00 35 7 Oeste 14 Oeste 0 -- -- 32
2020-07-07 12:00:00 33.2 5 Noroeste 12 Oeste 0 -- -- 35
2020-07-07 11:00:00 31.2 4 Noroeste 9 Oeste 0 -- -- 36
2020-07-07 10:00:00 29.6 3 Noroeste 13 Norte 0 -- -- 37
2020-07-07 09:00:00 27.9 7 Noroeste 13 Noroeste 0 -- -- 37
2020-07-07 08:00:00 27.1 6 Norte 12 Noroeste 0 -- -- 36
2020-07-07 07:00:00 27.4 4 Noroeste 15 Noroeste 0 -- -- 35
2020-07-07 06:00:00 27.7 7 Noroeste 19 Noroeste 0 -- -- 35
2020-07-07 05:00:00 27.9 11 Oeste 21 Oeste 0 -- -- 35
2020-07-07 04:00:00 28.5 10 Noroeste 25 Noroeste 0 -- -- 35
2020-07-07 03:00:00 28.9 9 Noroeste 27 Noroeste 0 -- -- 35
2020-07-07 02:00:00 28.9 11 Oeste 31 Oeste 0 -- -- 34
2020-07-07 01:00:00 29.5 15 Oeste 35 Oeste 0 -- -- 34
2020-07-07 00:00:00 29.9 19 Oeste 42 Oeste 0 -- -- 34
2020-07-06 23:00:00 31.9 6 Noroeste 12 Oeste 0 -- -- 29
2020-07-06 22:00:00 32.3 4 Oeste 11 Oeste 0 -- -- 29
2020-07-06 21:00:00 34.9 8 Noroeste 13 Oeste 0 -- -- 28
2020-07-06 20:00:00 37.7 7 Noroeste 17 Oeste 0 -- -- 25
2020-07-06 19:00:00 38.8 6 Oeste 16 Noroeste 0 -- -- 25
2020-07-06 18:00:00 38 9 Noroeste 20 Noroeste 0 -- -- 25
2020-07-06 17:00:00 37.9 7 Norte 22 Norte 0 -- -- 26
2020-07-06 16:00:00 37.6 8 Norte 23 Norte 0 -- -- 28
2020-07-06 15:00:00 36.3 8 Oeste 19 Noroeste 0 -- -- 29
2020-07-06 14:00:00 34.3 10 Noroeste 19 Noroeste 0 -- -- 31
2020-07-06 13:00:00 32.8 7 Noroeste 15 Oeste 0 -- -- 33
2020-07-06 12:00:00 31.2 6 Noroeste 12 Oeste 0 -- -- 34
2020-07-06 11:00:00 29.7 6 Oeste 9 Noroeste 0 -- -- 37
2020-07-06 10:00:00 28.2 3 Oeste 8 Noroeste 0 -- -- 36
2020-07-06 09:00:00 27 4 Noroeste 8 Noroeste 0 -- -- 35
2020-07-06 08:00:00 26.1 2 Norte 8 Este 0 -- -- 35
2020-07-06 07:00:00 24.2 0 Calma 5 Nordeste 0 -- -- 37
2020-07-06 06:00:00 23.8 3 Norte 16 Norte 0 -- -- 37
2020-07-06 05:00:00 23.2 3 Norte 13 Norte 0 -- -- 38
2020-07-06 04:00:00 23.3 5 Norte 19 Noroeste 0 -- -- 38
2020-07-06 03:00:00 25.1 12 Norte 18 Norte 0 -- -- 36
2020-07-06 02:00:00 25.5 5 Norte 19 Noroeste 0 -- -- 35
2020-07-06 01:00:00 26 9 Noroeste 25 Noroeste 0 -- -- 35
2020-07-06 00:00:00 27.6 12 Noroeste 17 Noroeste 0 -- -- 32
2020-07-05 23:00:00 29 2 Norte 15 Sudoeste 0 -- -- 32
2020-07-05 22:00:00 29.4 8 Oeste 26 Oeste 0 -- -- 33
2020-07-05 21:00:00 31.5 16 Oeste 28 Oeste 0 -- -- 31
2020-07-05 20:00:00 33.5 18 Oeste 31 Oeste 0 -- -- 31
2020-07-05 19:00:00 35.3 15 Oeste 27 Oeste 0 -- -- 29
2020-07-05 18:00:00 35.7 14 Noroeste 31 Oeste 0 -- -- 30
2020-07-05 17:00:00 36.4 13 Noroeste 28 Noroeste 0 -- -- 31
2020-07-05 16:00:00 35.9 12 Noroeste 32 Oeste 0 -- -- 31
2020-07-05 15:00:00 34.6 2 Oeste 20 Noroeste 0 -- -- 35
2020-07-05 14:00:00 32.8 6 Noroeste 17 Noroeste 0 -- -- 39
2020-07-05 13:00:00 30.7 7 Noroeste 20 Noroeste 0 -- -- 41
2020-07-05 12:00:00 29.9 4 Noroeste 13 Oeste 0 -- -- 43
2020-07-05 11:00:00 28.2 0 Calma 14 Noroeste 0 -- -- 45
2020-07-05 10:00:00 27.3 3 Este 21 Este 0 -- -- 46
2020-07-05 09:00:00 25.2 16 Este 25 Este 0 -- -- 48
2020-07-05 08:00:00 22.5 4 Sudeste 7 Sudeste 0 -- -- 51
2020-07-05 07:00:00 22.4 3 Norte 20 Este 0 -- -- 50
2020-07-05 06:00:00 22.9 13 Este 19 Este 0 -- -- 50
2020-07-05 05:00:00 22.9 0 Calma 15 Este 0 -- -- 49
2020-07-05 04:00:00 23.1 0 Calma 8 Noroeste 0 -- -- 48
2020-07-05 03:00:00 24.2 0 Calma 16 Norte 0 -- -- 46
2020-07-05 02:00:00 24.9 7 Norte 19 Norte 0 -- -- 46
2020-07-05 01:00:00 24.7 11 Norte 18 Norte 0 -- -- 47
2020-07-05 00:00:00 25.4 11 Noroeste 20 Noroeste 0 -- -- 46
2020-07-04 23:00:00 26.9 8 Noroeste 20 Norte 0 -- -- 45
2020-07-04 22:00:00 27.9 10 Noroeste 23 Oeste 0 -- -- 41
2020-07-04 21:00:00 31.8 14 Oeste 23 Oeste 0 -- -- 34
2020-07-04 20:00:00 34.5 6 Oeste 19 Oeste 0 -- -- 29
2020-07-04 19:00:00 34.8 9 Noroeste 19 Norte 0 -- -- 29
2020-07-04 18:00:00 35 9 Oeste 24 Noroeste 0 -- -- 29
2020-07-04 17:00:00 34.6 12 Noroeste 23 Oeste 0 -- -- 29
2020-07-04 16:00:00 33.4 13 Oeste 24 Oeste 0 -- -- 31
2020-07-04 15:00:00 33 8 Oeste 21 Noroeste 0 -- -- 31
2020-07-04 14:00:00 31.8 10 Noroeste 20 Oeste 0 -- -- 33
2020-07-04 13:00:00 30.6 12 Noroeste 22 Oeste 0 -- -- 35
2020-07-04 12:00:00 29.3 6 Oeste 13 Sudeste 0 -- -- 35
2020-07-04 11:00:00 27.3 0 Calma 10 Noroeste 0 -- -- 41
2020-07-04 10:00:00 25.5 0 Calma 14 Este 0 -- -- 42
2020-07-04 09:00:00 22.9 5 Este 12 Este 0 -- -- 43
2020-07-04 08:00:00 20.9 9 Nordeste 13 Nordeste 0 -- -- 41
2020-07-04 07:00:00 22.4 2 Noroeste 5 Norte 0 -- -- 41
2020-07-04 06:00:00 23.4 3 Norte 10 Norte 0 -- -- 39
2020-07-04 05:00:00 23.1 5 Norte 15 Norte 0 -- -- 41
2020-07-04 04:00:00 21.9 6 Norte 16 Norte 0 -- -- 43
2020-07-04 03:00:00 21.9 8 Noroeste 17 Noroeste 0 -- -- 43
2020-07-04 02:00:00 22.6 9 Noroeste 24 Noroeste 0 -- -- 38
2020-07-04 01:00:00 24.3 8 Noroeste 22 Oeste 0 -- -- 33
2020-07-04 00:00:00 26.3 14 Oeste 26 Oeste 0 -- -- 29
2020-07-03 23:00:00 26.8 5 Noroeste 8 Oeste 0 -- -- 30
2020-07-03 22:00:00 27.5 2 Noroeste 21 Noroeste 0 -- -- 29
2020-07-03 21:00:00 30.4 12 Noroeste 22 Noroeste 0 -- -- 27
2020-07-03 20:00:00 31.9 13 Oeste 25 Noroeste 0 -- -- 27
2020-07-03 19:00:00 32.3 14 Noroeste 28 Oeste 0 -- -- 27
2020-07-03 18:00:00 32.3 15 Oeste 28 Noroeste 0 -- -- 27
2020-07-03 17:00:00 32.2 16 Oeste 29 Noroeste 0 -- -- 28
2020-07-03 16:00:00 31.2 14 Noroeste 28 Oeste 0 -- -- 30
2020-07-03 15:00:00 30.4 14 Noroeste 26 Oeste 0 -- -- 31
2020-07-03 14:00:00 29.8 10 Oeste 23 Oeste 0 -- -- 34
2020-07-03 13:00:00 28.8 10 Oeste 22 Oeste 0 -- -- 36
2020-07-03 12:00:00 27.1 10 Oeste 19 Noroeste 0 -- -- 43
2020-07-03 11:00:00 24.8 6 Noroeste 12 Oeste 0 -- -- 52
2020-07-03 10:00:00 22.7 3 Noroeste 6 Noroeste 0 -- -- 56
2020-07-03 09:00:00 20.4 5 Norte 9 Norte 0 -- -- 61
2020-07-03 08:00:00 18.8 5 Norte 12 Norte 0 -- -- 60
2020-07-03 07:00:00 19.9 7 Norte 16 Noroeste 0 -- -- 58
2020-07-03 06:00:00 20.4 9 Norte 12 Norte 0 -- -- 56
2020-07-03 05:00:00 20.7 0 Calma 10 Noroeste 0 -- -- 56
2020-07-03 04:00:00 21.2 5 Noroeste 17 Noroeste 0 -- -- 54
2020-07-03 03:00:00 22.2 6 Noroeste 14 Noroeste 0 -- -- 51
2020-07-03 02:00:00 22.8 7 Noroeste 23 Noroeste 0 -- -- 48
2020-07-03 01:00:00 23.9 15 Noroeste 33 Oeste 0 -- -- 45
2020-07-03 00:00:00 25.7 15 Noroeste 32 Oeste 0 -- -- 39
2020-07-02 23:00:00 27.1 15 Oeste 30 Oeste 0 -- -- 37
2020-07-02 22:00:00 27.8 12 Oeste 21 Oeste 0 -- -- 34
2020-07-02 21:00:00 30.8 12 Oeste 26 Oeste 0 -- -- 30
2020-07-02 20:00:00 31.8 16 Oeste 28 Oeste 0 -- -- 27
2020-07-02 19:00:00 32.4 15 Oeste 35 Oeste 0 -- -- 28
2020-07-02 18:00:00 32.4 18 Oeste 45 Oeste 0 -- -- 30
2020-07-02 17:00:00 32.7 16 Oeste 35 Noroeste 0 -- -- 31
2020-07-02 16:00:00 32 15 Oeste 32 Oeste 0 -- -- 31
2020-07-02 15:00:00 31.1 15 Oeste 28 Oeste 0 -- -- 34
2020-07-02 14:00:00 30.9 11 Noroeste 24 Oeste 0 -- -- 38
2020-07-02 13:00:00 29.3 12 Noroeste 22 Noroeste 0 -- -- 40
2020-07-02 12:00:00 28.4 4 Noroeste 13 Noroeste 0 -- -- 45
2020-07-02 11:00:00 26.3 4 Noroeste 10 Noroeste 0 -- -- 53
2020-07-02 10:00:00 23.7 4 Noroeste 8 Noroeste 0 -- -- 59
2020-07-02 09:00:00 21.4 5 Norte 13 Noroeste 0 -- -- 62
2020-07-02 08:00:00 20.7 9 Noroeste 17 Noroeste 0 -- -- 61
2020-07-02 07:00:00 21.2 9 Noroeste 22 Noroeste 0 -- -- 58
2020-07-02 06:00:00 21.6 14 Noroeste 21 Norte 0 -- -- 48
2020-07-02 05:00:00 20.8 12 Noroeste 25 Noroeste 0 -- -- 57
2020-07-02 04:00:00 23.7 11 Oeste 21 Oeste 0 -- -- 38
2020-07-02 03:00:00 24.6 5 Oeste 29 Oeste 0 -- -- 39
2020-07-02 02:00:00 24.1 12 Noroeste 22 Norte 0 -- -- 43
2020-07-02 01:00:00 25 11 Noroeste 20 Noroeste 0 -- -- 41
2020-07-02 00:00:00 26.5 10 Noroeste 26 Noroeste 0 -- -- 37
2020-07-01 23:00:00 26.8 6 Noroeste 14 Oeste 0 -- -- 35
2020-07-01 22:00:00 27.7 8 Noroeste 17 Oeste 0 -- -- 32
2020-07-01 21:00:00 30.5 12 Oeste 23 Noroeste 0 -- -- 28
2020-07-01 20:00:00 32.5 16 Oeste 28 Oeste 0 -- -- 26
2020-07-01 19:00:00 33.3 16 Oeste 28 Oeste 0 -- -- 25
2020-07-01 18:00:00 33.4 18 Oeste 30 Oeste 0 -- -- 27
2020-07-01 17:00:00 33.1 15 Noroeste 24 Oeste 0 -- -- 26
2020-07-01 16:00:00 33.2 12 Oeste 28 Oeste 0 -- -- 30
2020-07-01 15:00:00 32 10 Oeste 26 Noroeste 0 -- -- 34
2020-07-01 14:00:00 30.9 9 Oeste 26 Oeste 0 -- -- 38
2020-07-01 13:00:00 29.7 9 Noroeste 18 Noroeste 0 -- -- 43
2020-07-01 12:00:00 27.9 4 Oeste 11 Oeste 0 -- -- 46
2020-07-01 11:00:00 26.1 3 Oeste 10 Noroeste 0 -- -- 51
2020-07-01 10:00:00 24.3 0 Calma 8 Norte 0 -- -- 55
2020-07-01 09:00:00 21.7 2 Noroeste 13 Noroeste 0 -- -- 57
2020-07-01 08:00:00 20.8 7 Noroeste 15 Noroeste 0 -- -- 57
2020-07-01 07:00:00 20.8 6 Norte 19 Noroeste 0 -- -- 57
2020-07-01 06:00:00 21 8 Noroeste 19 Oeste 0 -- -- 57
2020-07-01 05:00:00 21.2 8 Noroeste 20 Noroeste 0 -- -- 62
2020-07-01 04:00:00 20.3 8 Oeste 13 Oeste 0 -- -- 67
2020-07-01 03:00:00 20.6 5 Oeste 21 Noroeste 0 -- -- 66
2020-07-01 02:00:00 22.5 12 Noroeste 26 Norte 0 -- -- 61
2020-07-01 01:00:00 23.8 15 Noroeste 24 Noroeste 0 -- -- 57
2020-07-01 00:00:00 25 14 Noroeste 23 Noroeste 0 -- -- 55
2020-06-30 23:00:00 26.2 12 Noroeste 30 Oeste 0 -- -- 49
2020-06-30 22:00:00 28.7 17 Oeste 30 Oeste 0 -- -- 39
2020-06-30 21:00:00 31.9 12 Oeste 24 Noroeste 0 -- -- 31
2020-06-30 20:00:00 33.9 13 Noroeste 26 Oeste 0 -- -- 28
2020-06-30 19:00:00 35.1 15 Oeste 28 Oeste 0 -- -- 27
2020-06-30 18:00:00 35.4 15 Oeste 32 Oeste 0 -- -- 26
2020-06-30 17:00:00 35.9 18 Oeste 36 Oeste 0 -- -- 26
2020-06-30 16:00:00 35.1 10 Oeste 28 Oeste 0 -- -- 28
2020-06-30 15:00:00 33.3 14 Oeste 30 Noroeste 0 -- -- 28
2020-06-30 14:00:00 33.1 10 Oeste 21 Oeste 0 -- -- 30
2020-06-30 13:00:00 31.6 4 Noroeste 15 Noroeste 0 -- -- 31
2020-06-30 12:00:00 29.8 6 Noroeste 12 Noroeste 0 -- -- 33
2020-06-30 11:00:00 29 0 Calma 11 Sudeste 0 -- -- 33
2020-06-30 10:00:00 26.3 0 Calma 5 Noroeste 0 -- -- 36
2020-06-30 09:00:00 25 0 Calma 5 Este 0 -- -- 37
2020-06-30 08:00:00 22.5 4 Nordeste 8 Este 0 -- -- 37
2020-06-30 07:00:00 22.7 5 Nordeste 12 Este 0 -- -- 35
2020-06-30 06:00:00 23 4 Norte 12 Noroeste 0 -- -- 36
2020-06-30 05:00:00 23.6 6 Noroeste 14 Norte 0 -- -- 32
2020-06-30 04:00:00 27 2 Este 15 Norte 0 -- -- 29
2020-06-30 03:00:00 24.6 10 Noroeste 22 Noroeste 0 -- -- 31
2020-06-30 02:00:00 25.5 10 Noroeste 21 Noroeste 0 -- -- 30
2020-06-30 01:00:00 26.8 13 Noroeste 30 Norte 0 -- -- 28
2020-06-30 00:00:00 28.2 5 Noroeste 14 Noroeste 0 -- -- 27
2020-06-29 23:00:00 29.3 7 Noroeste 17 Noroeste 0 -- -- 27
2020-06-29 22:00:00 30.3 5 Noroeste 19 Oeste 0 -- -- 26
2020-06-29 21:00:00 32.6 12 Noroeste 24 Oeste 0 -- -- 24
2020-06-29 20:00:00 35.1 15 Oeste 27 Oeste 0 -- -- 24
2020-06-29 19:00:00 36.1 13 Noroeste 26 Oeste 0 -- -- 26
2020-06-29 18:00:00 36.4 14 Oeste 27 Oeste 0 -- -- 27
2020-06-29 17:00:00 36.1 15 Oeste 27 Oeste 0 -- -- 29
2020-06-29 16:00:00 35.4 14 Noroeste 23 Oeste 0 -- -- 30
2020-06-29 15:00:00 34.7 8 Noroeste 21 Oeste 0 -- -- 34
2020-06-29 14:00:00 33.3 8 Noroeste 16 Noroeste 0 -- -- 35
2020-06-29 13:00:00 32 6 Oeste 15 Oeste 0 -- -- 38
2020-06-29 12:00:00 30.3 5 Noroeste 14 Oeste 0 -- -- 40
2020-06-29 11:00:00 28.5 5 Noroeste 11 Oeste 0 -- -- 42
2020-06-29 10:00:00 27.6 0 Calma 12 Este 0 -- -- 43
2020-06-29 09:00:00 25.6 6 Este 14 Este 0 -- -- 46
2020-06-29 08:00:00 24.6 3 Nordeste 6 Noroeste 0 -- -- 43
2020-06-29 07:00:00 24.9 4 Noroeste 10 Oeste 0 -- -- 43
2020-06-29 06:00:00 25 5 Oeste 11 Noroeste 0 -- -- 43
2020-06-29 05:00:00 25.1 7 Noroeste 17 Oeste 0 -- -- 43
2020-06-29 04:00:00 25.9 10 Noroeste 21 Noroeste 0 -- -- 42
2020-06-29 03:00:00 25.9 9 Norte 22 Noroeste 0 -- -- 42
2020-06-29 02:00:00 26.1 12 Noroeste 22 Oeste 0 -- -- 41
2020-06-29 01:00:00 27.3 13 Oeste 26 Oeste 0 -- -- 37
2020-06-29 00:00:00 26.8 9 Noroeste 18 Noroeste 0 -- -- 32
2020-06-28 23:00:00 29.3 3 Oeste 8 Oeste 0 -- -- 30
2020-06-28 22:00:00 29.9 0 Calma 9 Noroeste 0 -- -- 28
2020-06-28 21:00:00 33 7 Noroeste 16 Noroeste 0 -- -- 27
2020-06-28 20:00:00 33.9 12 Noroeste 30 Noroeste 0 -- -- 26
2020-06-28 19:00:00 35.2 14 Oeste 25 Noroeste 0 -- -- 26
2020-06-28 18:00:00 35.5 10 Oeste 24 Oeste 0 -- -- 27
2020-06-28 17:00:00 34.6 8 Noroeste 25 Oeste 0 -- -- 29
2020-06-28 16:00:00 34.5 11 Oeste 21 Norte 0 -- -- 31
2020-06-28 15:00:00 32.7 4 Sudoeste 20 Noroeste 0 -- -- 34
2020-06-28 14:00:00 32 8 Noroeste 24 Oeste 0 -- -- 36
2020-06-28 13:00:00 30.8 7 Noroeste 19 Oeste 0 -- -- 38
2020-06-28 12:00:00 30.4 2 Sudeste 14 Sudeste 0 -- -- 40
2020-06-28 11:00:00 28.3 2 Este 12 Sudeste 0 -- -- 43
2020-06-28 10:00:00 26.7 3 Sudeste 9 Este 0 -- -- 49
2020-06-28 09:00:00 23.3 0 Calma 11 Este 0 -- -- 57
2020-06-28 08:00:00 21.2 6 Este 8 Este 0 -- -- 59
2020-06-28 07:00:00 21.2 4 Norte 5 Nordeste 0 -- -- 60
2020-06-28 06:00:00 20.6 4 Noroeste 12 Noroeste 0 -- -- 60
2020-06-28 05:00:00 21.3 6 Norte 14 Norte 0 -- -- 57
2020-06-28 04:00:00 21.6 9 Norte 13 Noroeste 0 -- -- 55
2020-06-28 03:00:00 22.9 6 Noroeste 17 Noroeste 0 -- -- 51
2020-06-28 02:00:00 23.3 6 Noroeste 16 Noroeste 0 -- -- 50
2020-06-28 01:00:00 24 9 Noroeste 26 Oeste 0 -- -- 49
2020-06-28 00:00:00 24.9 15 Oeste 24 Noroeste 0 -- -- 43
2020-06-27 23:00:00 26.2 6 Noroeste 14 Noroeste 0 -- -- 33
2020-06-27 22:00:00 26.9 4 Noroeste 13 Noroeste 0 -- -- 32
2020-06-27 21:00:00 29.9 8 Oeste 18 Oeste 0 -- -- 29
2020-06-27 20:00:00 31 9 Noroeste 20 Noroeste 0 -- -- 29
2020-06-27 19:00:00 31.5 8 Noroeste 21 Oeste 0 -- -- 29
2020-06-27 18:00:00 31.2 7 Noroeste 20 Noroeste 0 -- -- 29
2020-06-27 17:00:00 31.4 6 Oeste 24 Noroeste 0 -- -- 30
2020-06-27 16:00:00 30.4 9 Noroeste 23 Noroeste 0 -- -- 31
2020-06-27 15:00:00 28.8 7 Noroeste 19 Oeste 0 -- -- 32
2020-06-27 14:00:00 28 5 Noroeste 22 Noroeste 0 -- -- 33
2020-06-27 13:00:00 27.1 9 Noroeste 18 Oeste 0 -- -- 37
2020-06-27 12:00:00 24.7 8 Noroeste 15 Noroeste 0 -- -- 48
2020-06-27 11:00:00 23.3 5 Noroeste 10 Noroeste 0 -- -- 53
2020-06-27 10:00:00 21.1 0 Calma 6 Oeste 0 -- -- 57
2020-06-27 09:00:00 18.7 0 Calma 7 Norte 0 -- -- 62
2020-06-27 08:00:00 16.8 4 Norte 9 Norte 0 -- -- 64
2020-06-27 07:00:00 17 6 Norte 8 Norte 0 -- -- 62
2020-06-27 06:00:00 17.7 5 Norte 14 Noroeste 0 -- -- 58
2020-06-27 05:00:00 18.6 7 Noroeste 15 Noroeste 0 -- -- 54
2020-06-27 04:00:00 18.8 7 Noroeste 20 Noroeste 0 -- -- 54
2020-06-27 03:00:00 19.1 10 Noroeste 22 Noroeste 0 -- -- 52
2020-06-27 02:00:00 20 13 Noroeste 26 Oeste 0 -- -- 50
2020-06-27 01:00:00 20.6 15 Noroeste 25 Oeste 0 -- -- 50
2020-06-27 00:00:00 22 14 Noroeste 32 Oeste 0 -- -- 46
2020-06-26 23:00:00 23.3 18 Oeste 33 Oeste 0 -- -- 41
2020-06-26 22:00:00 23.7 13 Oeste 24 Oeste 0 -- -- 37
2020-06-26 21:00:00 25.7 16 Oeste 28 Oeste 0 -- -- 33
2020-06-26 20:00:00 27.4 18 Oeste 31 Oeste 0 -- -- 34
2020-06-26 19:00:00 27.9 18 Noroeste 32 Noroeste 0 -- -- 34
2020-06-26 18:00:00 28.6 17 Noroeste 32 Noroeste 0 -- -- 37
2020-06-26 17:00:00 28.3 18 Oeste 31 Oeste 0 -- -- 41
2020-06-26 16:00:00 26.8 16 Oeste 32 Oeste 0 -- -- 45
2020-06-26 15:00:00 25.8 17 Noroeste 28 Noroeste 0 -- -- 53
2020-06-26 14:00:00 24.5 17 Oeste 32 Oeste 0 -- -- 57
2020-06-26 13:00:00 23.6 13 Noroeste 25 Noroeste 0 -- -- 64
2020-06-26 12:00:00 22.7 11 Oeste 19 Oeste 0 -- -- 71
2020-06-26 11:00:00 20.4 5 Oeste 11 Oeste 0 -- -- 83
2020-06-26 10:00:00 18.8 4 Noroeste 9 Oeste 0 -- -- 94
2020-06-26 09:00:00 17.9 6 Noroeste 10 Noroeste 0 -- -- 99
2020-06-26 08:00:00 18 4 Oeste 12 Oeste 0 -- -- 99
2020-06-26 07:00:00 17.9 6 Oeste 13 Oeste 0 -- -- 99
2020-06-26 06:00:00 17.5 6 Noroeste 10 Noroeste 0 -- -- 99
2020-06-26 05:00:00 17.4 2 Noroeste 12 Noroeste 0 -- -- 98
2020-06-26 04:00:00 18.2 5 Norte 14 Norte 0 -- -- 94
2020-06-26 03:00:00 18.9 6 Norte 13 Noroeste 0 -- -- 89
2020-06-26 02:00:00 19.8 8 Noroeste 21 Noroeste 0 -- -- 85
2020-06-26 01:00:00 20.8 11 Noroeste 24 Oeste 0 -- -- 80
2020-06-26 00:00:00 21.8 15 Oeste 24 Noroeste 0 -- -- 75
2020-06-25 23:00:00 23.2 15 Oeste 27 Oeste 0 -- -- 65
2020-06-25 22:00:00 25 18 Oeste 32 Oeste 0 -- -- 54
2020-06-25 21:00:00 27.7 19 Oeste 28 Oeste 0 -- -- 45
2020-06-25 20:00:00 29.9 16 Noroeste 29 Oeste 0 -- -- 39
2020-06-25 19:00:00 30.9 18 Oeste 28 Oeste 0 -- -- 36
2020-06-25 18:00:00 31.8 15 Oeste 32 Noroeste 0 -- -- 36
2020-06-25 17:00:00 31.7 16 Noroeste 30 Noroeste 0 -- -- 36
2020-06-25 16:00:00 31.5 15 Oeste 25 Oeste 0 -- -- 37
2020-06-25 15:00:00 30.2 12 Oeste 26 Norte 0 -- -- 39
2020-06-25 14:00:00 29.3 12 Oeste 20 Oeste 0 -- -- 42
2020-06-25 13:00:00 27.9 6 Oeste 16 Oeste 0 -- -- 44
2020-06-25 12:00:00 26.4 5 Noroeste 15 Oeste 0 -- -- 46
2020-06-25 11:00:00 24.8 8 Oeste 15 Oeste 0 -- -- 48
2020-06-25 10:00:00 22.9 4 Noroeste 9 Noroeste 0 -- -- 51
2020-06-25 09:00:00 21.2 0 Calma 6 Noroeste 0 -- -- 52
2020-06-25 08:00:00 20.4 3 Norte 7 Norte 0 -- -- 52
2020-06-25 07:00:00 20 3 Nordeste 11 Norte 0 -- -- 52
2020-06-25 06:00:00 19.9 7 Noroeste 16 Noroeste 0 -- -- 53
2020-06-25 05:00:00 20.4 7 Noroeste 13 Noroeste 0 -- -- 52
2020-06-25 04:00:00 21.2 4 Noroeste 9 Noroeste 0 -- -- 46
2020-06-25 03:00:00 21.8 4 Norte 13 Norte 0 -- -- 44
2020-06-25 02:00:00 22.2 9 Noroeste 18 Noroeste 0 -- -- 42
2020-06-25 01:00:00 23.5 12 Noroeste 18 Noroeste 0 -- -- 38
2020-06-25 00:00:00 26 11 Oeste 27 Oeste 0 -- -- 33
2020-06-24 23:00:00 26.8 13 Noroeste 26 Oeste 0 -- -- 32
2020-06-24 22:00:00 28.2 8 Oeste 17 Oeste 0 -- -- 34
2020-06-24 21:00:00 31 8 Oeste 24 Oeste 0 -- -- 32
2020-06-24 20:00:00 32.2 15 Oeste 31 Oeste 0 -- -- 31
2020-06-24 19:00:00 33.8 15 Oeste 28 Oeste 0 -- -- 31
2020-06-24 18:00:00 34.6 11 Noroeste 22 Noroeste 0 -- -- 30
2020-06-24 17:00:00 34.4 9 Oeste 24 Oeste 0 -- -- 31
2020-06-24 16:00:00 34.4 9 Oeste 25 Oeste 0 -- -- 32
2020-06-24 15:00:00 33.1 8 Norte 23 Noroeste 0 -- -- 33
2020-06-24 14:00:00 32 8 Norte 21 Oeste 0 -- -- 34
2020-06-24 13:00:00 32 2 Nordeste 15 Sudeste 0 -- -- 35
2020-06-24 12:00:00 29.7 3 Este 16 Sudeste 0 -- -- 36
2020-06-24 11:00:00 28.2 6 Este 12 Nordeste 0 -- -- 40
2020-06-24 10:00:00 25.5 4 Sudoeste 8 Norte 0 -- -- 43
2020-06-24 09:00:00 25.9 3 Nordeste 9 Este 0 -- -- 41
2020-06-24 08:00:00 22.5 7 Este 10 Este 0 -- -- 44
2020-06-24 07:00:00 22.5 5 Nordeste 13 Noroeste 0 -- -- 44
2020-06-24 06:00:00 23.2 9 Noroeste 13 Norte 0 -- -- 42
2020-06-24 05:00:00 24 5 Noroeste 12 Noroeste 0 -- -- 41
2020-06-24 04:00:00 23.4 5 Noroeste 10 Noroeste 0 -- -- 42
2020-06-24 03:00:00 22.5 4 Norte 12 Norte 0 -- -- 43
2020-06-24 02:00:00 23.3 5 Noroeste 28 Noroeste 0 -- -- 39
2020-06-24 01:00:00 28.3 9 Este -- -- -- -- -- 31
2020-06-24 00:00:00 25.2 9 Noroeste 27 Noroeste 0 -- -- 35
2020-06-23 23:00:00 27 11 Noroeste 30 Oeste 0 -- -- 31
2020-06-23 22:00:00 28.3 10 Noroeste 20 Oeste 0 -- -- 31
2020-06-23 21:00:00 29.8 8 Oeste 22 Noroeste 0 -- -- 30
2020-06-23 20:00:00 32.8 16 Noroeste 28 Oeste 0 -- -- 27
2020-06-23 19:00:00 35 15 Oeste 28 Oeste 0 -- -- 26
2020-06-23 18:00:00 32.8 13 Oeste 38 Oeste 0 -- -- 27
2020-06-23 17:00:00 36.5 12 Noroeste 22 Noroeste 0 -- -- 26
2020-06-23 16:00:00 36.1 5 Noroeste 19 Noroeste 0 -- -- 26
2020-06-23 15:00:00 34.3 9 Noroeste 25 Norte 0 -- -- 26
2020-06-23 14:00:00 34.4 6 Noroeste 30 Oeste 0 -- -- 26
2020-06-23 13:00:00 34.3 3 Este 19 Norte 0 -- -- 28
2020-06-23 12:00:00 32.8 5 Este 18 Sudeste 0 -- -- 28
2020-06-23 11:00:00 30.9 3 Sudeste 17 Nordeste 0 -- -- 31
2020-06-23 10:00:00 28.2 7 Nordeste 26 Nordeste 0 -- -- 32
2020-06-23 09:00:00 26.9 12 Nordeste 26 Este 0 -- -- 32
2020-06-23 08:00:00 24.7 14 Este 23 Este 0 -- -- 32
2020-06-23 07:00:00 24.6 14 Este 20 Este 0 -- -- 31
2020-06-23 06:00:00 25.4 13 Este 22 Este 0 -- -- 31
2020-06-23 05:00:00 24.2 14 Este 17 Este 0 -- -- 32
2020-06-23 04:00:00 23.8 4 Sudeste 9 Noroeste 0 -- -- 31
2020-06-23 03:00:00 26.4 0 Calma 8 Este 0 -- -- 29
2020-06-23 02:00:00 27 3 Norte 15 Este 0 -- -- 29
2020-06-23 01:00:00 26.5 3 Norte 13 Noroeste 0 -- -- 29
2020-06-23 00:00:00 26.8 5 Norte 17 Noroeste 0 -- -- 28
2020-06-22 23:00:00 27.8 3 Norte 18 Noroeste 0 -- -- 28
2020-06-22 22:00:00 29 7 Oeste 17 Noroeste 0 -- -- 27
2020-06-22 21:00:00 31.4 10 Noroeste 26 Oeste 0 -- -- 25
2020-06-22 20:00:00 34 16 Oeste 28 Oeste 0 -- -- 24
2020-06-22 19:00:00 34.8 15 Oeste 30 Noroeste 0 -- -- 24
2020-06-22 18:00:00 35.9 16 Oeste 29 Oeste 0 -- -- 24
2020-06-22 17:00:00 35.6 15 Oeste 32 Oeste 0 -- -- 24
2020-06-22 16:00:00 35.5 15 Oeste 30 Oeste 0 -- -- 24
2020-06-22 15:00:00 35.1 8 Sudoeste 18 Sudoeste 0 -- -- 24
2020-06-22 14:00:00 34.8 7 Oeste 24 Oeste 0 -- -- 25
2020-06-22 13:00:00 33 5 Norte 17 Noroeste 0 -- -- 28
2020-06-22 12:00:00 31.4 8 Noroeste 15 Noroeste 0 -- -- 29
2020-06-22 11:00:00 30 4 Noroeste 8 Noroeste 0 -- -- 30
2020-06-22 10:00:00 28 4 Noroeste 6 Noroeste 0 -- -- 30
2020-06-22 09:00:00 27 0 Calma 7 Nordeste 0 -- -- 30
2020-06-22 08:00:00 24.8 3 Norte 9 Norte 0 -- -- 31
2020-06-22 07:00:00 24.7 2 Nordeste 5 Este 0 -- -- 30
2020-06-22 06:00:00 24.9 3 Norte 10 Norte 0 -- -- 30
2020-06-22 05:00:00 24.7 8 Norte 12 Norte 0 -- -- 29
2020-06-22 04:00:00 24.7 7 Sudeste 12 Sudeste 0 -- -- 28
2020-06-22 03:00:00 25.3 10 Sudeste 13 Este 0 -- -- 27
2020-06-22 02:00:00 25.6 6 Este 9 Sudeste 0 -- -- 26
2020-06-22 01:00:00 27.7 4 Norte 10 Noroeste 0 -- -- 26
2020-06-22 00:00:00 27.7 5 Noroeste 8 Noroeste 0 -- -- 27
2020-06-21 23:00:00 28.5 0 Calma 6 Nordeste 0 -- -- 26
2020-06-21 22:00:00 29.5 0 Calma 7 Norte 0 -- -- 26
2020-06-21 21:00:00 32.9 4 Noroeste 13 Oeste 0 -- -- 24
2020-06-21 20:00:00 34.5 6 Noroeste 15 Noroeste 0 -- -- 23
2020-06-21 19:00:00 34.3 9 Noroeste 20 Noroeste 0 -- -- 23
2020-06-21 18:00:00 34.4 8 Noroeste 19 Oeste 0 -- -- 24
2020-06-21 17:00:00 34.2 10 Noroeste 18 Noroeste 0 -- -- 25
2020-06-21 16:00:00 33.7 3 Norte 17 Noroeste 0 -- -- 26
2020-06-21 15:00:00 32.7 6 Noroeste 30 Nordeste 0 -- -- 28
2020-06-21 14:00:00 31.7 4 Norte 16 Nordeste 0 -- -- 29
2020-06-21 13:00:00 30.9 4 Sudeste 19 Norte 0 -- -- 31
2020-06-21 12:00:00 28.9 9 Noroeste 19 Oeste 0 -- -- 35
2020-06-21 11:00:00 27.2 4 Sudeste 10 Noroeste 0 -- -- 36
2020-06-21 10:00:00 25 3 Noroeste 6 Noroeste 0 -- -- 39
2020-06-21 09:00:00 24.1 0 Calma 4 Este 0 -- -- 38
2020-06-21 08:00:00 21.8 3 Este 7 Noroeste 0 -- -- 39
2020-06-21 07:00:00 21.4 3 Norte 9 Noroeste 0 -- -- 39
2020-06-21 06:00:00 21.7 6 Norte 13 Noroeste 0 -- -- 38
2020-06-21 05:00:00 21.8 5 Norte 17 Noroeste 0 -- -- 39
2020-06-21 04:00:00 22.5 9 Noroeste 26 Noroeste 0 -- -- 38
2020-06-21 03:00:00 -- 9 Noroeste 22 Noroeste 0 -- -- --
2020-06-21 02:00:00 23.5 9 Noroeste 18 Noroeste 0 -- -- 35
2020-06-21 01:00:00 24.3 8 Noroeste 18 Noroeste 0 -- -- 33
2020-06-21 00:00:00 25.6 9 Noroeste 15 Noroeste 0 -- -- 32
2020-06-20 23:00:00 25.9 5 Oeste 12 Noroeste 0 -- -- 32
2020-06-20 22:00:00 27.4 0 Calma 10 Noroeste 0 -- -- 29
2020-06-20 21:00:00 30 8 Noroeste 21 Oeste 0 -- -- 28
2020-06-20 20:00:00 30.9 12 Noroeste 25 Noroeste 0 -- -- 28
2020-06-20 19:00:00 32 12 Oeste 26 Noroeste 0 -- -- 28
2020-06-20 18:00:00 32.2 11 Oeste 24 Oeste 0 -- -- 29
2020-06-20 17:00:00 31.6 14 Oeste 29 Oeste 0 -- -- 31
2020-06-20 16:00:00 31.2 9 Noroeste 25 Noroeste 0 -- -- 33
2020-06-20 15:00:00 30.6 8 Noroeste 22 Noroeste 0 -- -- 35
2020-06-20 14:00:00 29.2 3 Oeste 18 Noroeste 0 -- -- 37
2020-06-20 13:00:00 28 9 Noroeste 18 Noroeste 0 -- -- 40
2020-06-20 12:00:00 26.3 8 Oeste 13 Oeste 0 -- -- 43
2020-06-20 11:00:00 24.6 4 Noroeste 8 Noroeste 0 -- -- 46
2020-06-20 10:00:00 22.9 2 Oeste 5 Noroeste 0 -- -- 46
2020-06-20 09:00:00 21.1 0 Calma 4 Sudeste 0 -- -- 48
2020-06-20 08:00:00 19.2 2 Noroeste 8 Este 0 -- -- 50
2020-06-20 07:00:00 19.5 6 Este 9 Este 0 -- -- 49
2020-06-20 06:00:00 19.6 6 Este 10 Nordeste 0 -- -- 49
2020-06-20 05:00:00 20.2 3 Sudeste 7 Este 0 -- -- 49
2020-06-20 04:00:00 19.8 0 Calma 9 Noroeste 0 -- -- 51
2020-06-20 03:00:00 20 5 Noroeste 12 Noroeste 0 -- -- 51
2020-06-20 02:00:00 20.2 6 Noroeste 17 Noroeste 0 -- -- 49
2020-06-20 01:00:00 21.1 12 Noroeste 17 Noroeste 0 -- -- 46
2020-06-20 00:00:00 22.1 8 Noroeste 20 Oeste 0 -- -- 42
2020-06-19 23:00:00 22.4 7 Oeste 18 Oeste 0 -- -- 40
2020-06-19 22:00:00 23.5 6 Oeste 17 Oeste 0 -- -- 39
2020-06-19 21:00:00 26.3 10 Oeste 24 Noroeste 0 -- -- 35
2020-06-19 20:00:00 27.8 15 Oeste 24 Oeste 0 -- -- 34
2020-06-19 19:00:00 28.1 13 Oeste 27 Noroeste 0 -- -- 33
2020-06-19 18:00:00 28.3 12 Noroeste 28 Noroeste 0 -- -- 34
2020-06-19 17:00:00 28.5 13 Noroeste 28 Noroeste 0 -- -- 36
2020-06-19 16:00:00 27.6 10 Noroeste 26 Oeste 0 -- -- 40
2020-06-19 15:00:00 26.1 13 Norte 23 Norte 0 -- -- 43
2020-06-19 14:00:00 25.2 10 Noroeste 21 Norte 0 -- -- 47
2020-06-19 13:00:00 24.2 7 Oeste 19 Noroeste 0 -- -- 50
2020-06-19 12:00:00 22.3 8 Oeste 15 Noroeste 0 -- -- 55
2020-06-19 11:00:00 20.4 5 Noroeste 15 Noroeste 0 -- -- 58
2020-06-19 10:00:00 18.9 8 Noroeste 13 Noroeste 0 -- -- 63
2020-06-19 09:00:00 17.1 8 Noroeste 14 Noroeste 0 -- -- 67
2020-06-19 08:00:00 16.1 6 Noroeste 18 Noroeste 0 -- -- 63
2020-06-19 07:00:00 16.5 12 Noroeste 23 Noroeste 0 -- -- 56
2020-06-19 06:00:00 17 12 Noroeste 23 Oeste 0 -- -- 52
2020-06-19 05:00:00 17.9 12 Oeste 24 Oeste 0 -- -- 51
2020-06-19 04:00:00 17.8 14 Oeste 24 Oeste 0 -- -- 46
2020-06-19 03:00:00 16.9 10 Noroeste 22 Noroeste 0 -- -- 52
2020-06-19 02:00:00 17.7 13 Oeste 25 Norte 0 -- -- 54
2020-06-19 01:00:00 19.1 16 Oeste 28 Oeste 0 -- -- 47
2020-06-19 00:00:00 19.7 13 Noroeste 28 Oeste 0 -- -- 41
2020-06-18 23:00:00 21.8 15 Oeste 29 Oeste 0 -- -- 35
2020-06-18 22:00:00 22.8 12 Oeste 24 Noroeste 0 -- -- 33
2020-06-18 21:00:00 25.2 14 Oeste 28 Noroeste 0 -- -- 31
2020-06-18 20:00:00 27 17 Oeste 38 Oeste 0 -- -- 31
2020-06-18 19:00:00 28.1 18 Oeste 33 Oeste 0 -- -- 31
2020-06-18 18:00:00 27.9 17 Oeste 30 Oeste 0 -- -- 31
2020-06-18 17:00:00 28 14 Oeste 31 Oeste 0 -- -- 31
2020-06-18 16:00:00 27.8 12 Noroeste 34 Noroeste 0 -- -- 34
2020-06-18 15:00:00 26.8 6 Oeste 24 Oeste 0 -- -- 37
2020-06-18 14:00:00 26.1 13 Oeste 23 Oeste 0 -- -- 39
2020-06-18 13:00:00 24.9 9 Noroeste 17 Noroeste 0 -- -- 43
2020-06-18 12:00:00 23.5 6 Noroeste 18 Oeste 0 -- -- 46
2020-06-18 11:00:00 21.9 4 Noroeste 12 Noroeste 0 -- -- 50
2020-06-18 10:00:00 20 2 Noroeste 8 Noroeste 0 -- -- 57
2020-06-18 09:00:00 18 3 Noroeste 6 Sudeste 0 -- -- 63
2020-06-18 08:00:00 16.6 3 Sudeste 16 Noroeste 0 -- -- 64
2020-06-18 07:00:00 16.4 9 Este 11 Sudeste 0 -- -- 61
2020-06-18 06:00:00 16.7 4 Nordeste 10 Norte 0 -- -- 65
2020-06-18 05:00:00 16.4 7 Norte 14 Noroeste 0 -- -- 65
2020-06-18 04:00:00 16.7 7 Norte 14 Noroeste 0 -- -- 64
2020-06-18 03:00:00 18 6 Noroeste 20 Noroeste 0 -- -- 60
2020-06-18 02:00:00 18.8 12 Noroeste 24 Oeste 0 -- -- 55
2020-06-18 01:00:00 20.4 17 Oeste 30 Sudoeste 0 -- -- 50
2020-06-18 00:00:00 20.9 15 Oeste 30 Oeste 0 -- -- 48
2020-06-17 23:00:00 21.8 13 Oeste 27 Oeste 0 -- -- 40
2020-06-17 22:00:00 22.1 7 Noroeste 18 Noroeste 0 -- -- 37
2020-06-17 21:00:00 24.8 13 Oeste 28 Noroeste 0 -- -- 34
2020-06-17 20:00:00 26.2 17 Oeste 31 Oeste 0 -- -- 32
2020-06-17 19:00:00 26.6 16 Oeste 34 Oeste 0 -- -- 31
2020-06-17 18:00:00 26.9 13 Oeste 34 Oeste 0 -- -- 32
2020-06-17 17:00:00 26.2 15 Oeste 35 Noroeste 0 -- -- 34
2020-06-17 16:00:00 26 16 Oeste 31 Oeste 0 -- -- 37
2020-06-17 15:00:00 25.7 13 Oeste 29 Oeste 0 -- -- 40
2020-06-17 14:00:00 24.5 15 Oeste 30 Noroeste 0 -- -- 43
2020-06-17 13:00:00 22.9 15 Oeste 28 Oeste 0 -- -- 48
2020-06-17 12:00:00 21.9 15 Oeste 32 Noroeste 0 -- -- 53
2020-06-17 11:00:00 20.8 12 Oeste 21 Noroeste 0 -- -- 68
2020-06-17 10:00:00 18.4 7 Noroeste 14 Noroeste 0 -- -- 85
2020-06-17 09:00:00 16.7 9 Noroeste 16 Oeste 0 -- -- 96
2020-06-17 08:00:00 15.9 4 Norte 8 Norte 0 -- -- 95
2020-06-17 07:00:00 16.3 0 Calma 8 Noroeste 0 -- -- 88
2020-06-17 06:00:00 16 4 Noroeste 10 Noroeste 0 -- -- 93
2020-06-17 05:00:00 16.1 3 Norte 12 Norte 0 -- -- 91
2020-06-17 04:00:00 17.1 6 Noroeste 16 Noroeste 0 -- -- 84
2020-06-17 03:00:00 17.9 8 Noroeste 16 Norte 0 -- -- 79
2020-06-17 02:00:00 18.2 6 Noroeste 28 Oeste 0 -- -- 78
2020-06-17 01:00:00 18.6 15 Oeste 33 Noroeste 0 -- -- 78
2020-06-17 00:00:00 19.1 17 Noroeste 30 Oeste 0 -- -- 75
2020-06-16 23:00:00 20.5 15 Oeste 26 Oeste 0 -- -- 66
2020-06-16 22:00:00 22 13 Oeste 30 Noroeste 0 -- -- 47
2020-06-16 21:00:00 22.7 19 Oeste 41 Oeste 0 -- -- 48
2020-06-16 20:00:00 23.5 22 Oeste 42 Oeste 0 -- -- 45
2020-06-16 19:00:00 24.9 22 Oeste 41 Oeste 0 -- -- 39
2020-06-16 18:00:00 25.9 23 Oeste 39 Noroeste 0 -- -- 37
2020-06-16 17:00:00 26.3 18 Noroeste 38 Oeste 0 -- -- 37
2020-06-16 16:00:00 26 18 Oeste 39 Oeste 0 -- -- 37
2020-06-16 15:00:00 25.1 16 Oeste 34 Oeste 0 -- -- 38
2020-06-16 14:00:00 24 16 Noroeste 27 Oeste 0 -- -- 40
2020-06-16 13:00:00 22.8 12 Oeste 25 Noroeste 0 -- -- 47
2020-06-16 12:00:00 21.6 8 Oeste 21 Oeste 0 -- -- 53
2020-06-16 11:00:00 19.8 8 Oeste 18 Noroeste 0 -- -- 59
2020-06-16 10:00:00 18.7 4 Noroeste 12 Noroeste 0 -- -- 64
2020-06-16 09:00:00 16.6 6 Noroeste 11 Noroeste 0 -- -- 68
2020-06-16 08:00:00 15.4 3 Norte 11 Noroeste 0 -- -- 70
2020-06-16 07:00:00 15.4 7 Noroeste 15 Norte 0 -- -- 67
2020-06-16 06:00:00 15.9 10 Noroeste 18 Noroeste 0 -- -- 62
2020-06-16 05:00:00 16.1 11 Noroeste 24 Noroeste 0 -- -- 60
2020-06-16 04:00:00 16.7 11 Noroeste 19 Noroeste 0 -- -- 56
2020-06-16 03:00:00 16.9 10 Noroeste 21 Oeste 0 -- -- 55
2020-06-16 02:00:00 16.7 15 Noroeste 30 Norte 0 -- -- 56
2020-06-16 01:00:00 18.3 12 Noroeste 24 Noroeste 0 -- -- 49
2020-06-16 00:00:00 19 14 Noroeste 28 Noroeste 0 -- -- 46
2020-06-15 23:00:00 21.3 15 Oeste 29 Oeste 0 -- -- 41
2020-06-15 22:00:00 21.2 8 Noroeste 21 Oeste 0 -- -- 38
2020-06-15 21:00:00 23.6 15 Oeste 26 Oeste 0 -- -- 35
2020-06-15 20:00:00 25.1 14 Oeste 27 Oeste 0 -- -- 34
2020-06-15 19:00:00 -- 20 Noroeste 30 Oeste 0 -- -- --
2020-06-15 18:00:00 26.2 17 Noroeste 29 Noroeste 0 -- -- 33
2020-06-15 17:00:00 26.5 12 Noroeste 32 Oeste 0 -- -- 34
2020-06-15 16:00:00 25.8 15 Noroeste 33 Noroeste 0 -- -- 37
2020-06-15 15:00:00 25 12 Noroeste 24 Oeste 0 -- -- 38
2020-06-15 14:00:00 24.3 9 Noroeste 21 Noroeste 0 -- -- 41
2020-06-15 13:00:00 23.5 10 Noroeste 18 Noroeste 0 -- -- 45
2020-06-15 12:00:00 22.5 8 Sudeste 18 Sudeste 0 -- -- 46
2020-06-15 11:00:00 20.7 4 Este 12 Sudeste 0 -- -- 53
2020-06-15 10:00:00 19.2 3 Este 10 Sudeste 0 -- -- 59
2020-06-15 09:00:00 15.8 2 Este 6 Norte 0 -- -- 74
2020-06-15 08:00:00 13.8 2 Noroeste 8 Noroeste 0 -- -- 76
2020-06-15 07:00:00 13.9 4 Noroeste 13 Noroeste 0 -- -- 69
2020-06-15 06:00:00 14.6 6 Noroeste 24 Noroeste 0 -- -- 64
2020-06-15 05:00:00 15.5 10 Noroeste 22 Oeste 0 -- -- 61
2020-06-15 04:00:00 16 10 Oeste 24 Oeste 0 -- -- 60
2020-06-15 03:00:00 16.1 15 Oeste 28 Oeste 0 -- -- 59
2020-06-15 02:00:00 14.8 12 Noroeste 23 Noroeste 0 -- -- 69
2020-06-15 01:00:00 16.1 14 Noroeste 23 Noroeste 0 -- -- 59
2020-06-15 00:00:00 17.3 13 Noroeste 26 Noroeste 0 -- -- 52
2020-06-14 23:00:00 18.5 15 Oeste 32 Oeste 0 -- -- 48
2020-06-14 22:00:00 20.1 17 Oeste 33 Oeste 0 -- -- 43
2020-06-14 21:00:00 22.4 21 Oeste 31 Oeste 0 -- -- 37
2020-06-14 20:00:00 24.8 15 Oeste 28 Noroeste 0 -- -- 31
2020-06-14 19:00:00 25.1 16 Noroeste 32 Noroeste 0 -- -- 30
2020-06-14 18:00:00 25.5 15 Noroeste 31 Oeste 0 -- -- 31
2020-06-14 17:00:00 25.5 14 Noroeste 27 Norte 0 -- -- 31
2020-06-14 16:00:00 24.6 12 Noroeste 27 Noroeste 0 -- -- 33
2020-06-14 15:00:00 24.4 6 Noroeste 24 Noroeste 0 -- -- 36
2020-06-14 14:00:00 23.2 9 Norte 23 Noroeste 0 -- -- 38
2020-06-14 13:00:00 22.1 7 Norte 23 Noroeste 0 -- -- 43
2020-06-14 12:00:00 20.4 8 Noroeste 17 Noroeste 0 -- -- 50
2020-06-14 11:00:00 19.1 6 Oeste 13 Noroeste 0 -- -- 55
2020-06-14 10:00:00 17.2 6 Noroeste 13 Noroeste 0 -- -- 60
2020-06-14 09:00:00 15.2 4 Noroeste 14 Norte 0 -- -- 63
2020-06-14 08:00:00 14.6 6 Noroeste 12 Norte 0 -- -- 63
2020-06-14 07:00:00 14.1 8 Noroeste 17 Norte 0 -- -- 62
2020-06-14 06:00:00 15.4 9 Noroeste 18 Noroeste 0 -- -- 58
2020-06-14 05:00:00 14.9 11 Noroeste 16 Noroeste 0 -- -- 59
2020-06-14 04:00:00 15.7 7 Noroeste 23 Oeste 0 -- -- 59
2020-06-14 03:00:00 15.4 8 Noroeste 15 Noroeste 0 -- -- 59
2020-06-14 02:00:00 15.7 9 Noroeste 24 Oeste 0 -- -- 54
2020-06-14 01:00:00 16.5 9 Noroeste 21 Noroeste 0 -- -- 47
2020-06-14 00:00:00 17.8 0 Calma 5 Sudeste 0 -- -- 40
2020-06-13 23:00:00 17.9 2 Sudeste 5 Este 0 -- -- 40
2020-06-13 22:00:00 18.8 0 Calma 13 Oeste 0 -- -- 38
2020-06-13 21:00:00 20.4 9 Noroeste 22 Oeste 0 -- -- 35
2020-06-13 20:00:00 22.5 13 Oeste 27 Noroeste 0 -- -- 33
2020-06-13 19:00:00 22.6 15 Oeste 29 Noroeste 0 -- -- 34
2020-06-13 18:00:00 22.4 9 Noroeste 28 Noroeste 0 -- -- 35
2020-06-13 17:00:00 22.4 12 Noroeste 28 Noroeste 0 -- -- 36
2020-06-13 16:00:00 22.3 9 Oeste 29 Oeste 0 -- -- 37
2020-06-13 15:00:00 21.7 8 Sudoeste 24 Oeste 0 -- -- 38
2020-06-13 14:00:00 19.5 6 Noroeste 29 Oeste 0 -- -- 46
2020-06-13 13:00:00 19.9 7 Noroeste 21 Noroeste 0 -- -- 48
2020-06-13 12:00:00 18.1 11 Noroeste 20 Noroeste 0 -- -- 57
2020-06-13 11:00:00 16.7 7 Noroeste 17 Oeste 0 -- -- 70
2020-06-13 10:00:00 15.3 9 Noroeste 16 Oeste 0 -- -- 78
2020-06-13 09:00:00 13.6 9 Noroeste 17 Noroeste 0 -- -- 89
2020-06-13 08:00:00 12.5 3 Noroeste 12 Noroeste 0 -- -- 93
2020-06-13 07:00:00 12.5 4 Noroeste 16 Oeste 0 -- -- 92
2020-06-13 06:00:00 12.9 4 Noroeste 18 Oeste 0 -- -- 89
2020-06-13 05:00:00 13.3 8 Oeste 24 Sudoeste 0 -- -- 86
2020-06-13 04:00:00 13.4 13 Oeste 28 Oeste 0 -- -- 84
2020-06-13 03:00:00 13.6 18 Oeste 37 Oeste 0 -- -- 80
2020-06-13 02:00:00 13.6 21 Oeste 44 Sudoeste 0 -- -- 77
2020-06-13 01:00:00 13.7 18 Oeste 42 Oeste 0 -- -- 76
2020-06-13 00:00:00 14.2 21 Oeste 37 Oeste 0 -- -- 68
2020-06-12 23:00:00 15.3 20 Oeste 41 Oeste 0 -- -- 56
2020-06-12 22:00:00 16.7 22 Oeste 38 Oeste 0 -- -- 46
2020-06-12 21:00:00 18.5 17 Oeste 32 Oeste 0 -- -- 39
2020-06-12 20:00:00 18.7 21 Oeste 40 Oeste 0 -- -- 40
2020-06-12 19:00:00 18.5 22 Oeste 42 Oeste 0 -- -- 43
2020-06-12 18:00:00 19.7 20 Oeste 37 Oeste 0 -- -- 40
2020-06-12 17:00:00 19.9 22 Oeste 40 Oeste 0 -- -- 40
2020-06-12 16:00:00 19.6 19 Oeste 40 Oeste 0 -- -- 41
2020-06-12 15:00:00 18.4 21 Oeste 38 Oeste 0 -- -- 48
2020-06-12 14:00:00 15.9 19 Oeste 36 Oeste 0 -- -- 58
2020-06-12 13:00:00 15.2 17 Oeste 28 Oeste 0 -- -- 65
2020-06-12 12:00:00 13.7 12 Oeste 20 Oeste 0 -- -- 72
2020-06-12 11:00:00 12.8 10 Noroeste 20 Noroeste 0 -- -- 75
2020-06-12 10:00:00 12.6 10 Noroeste 27 Oeste 0 -- -- 99
2020-06-12 09:00:00 12.7 18 Oeste 34 Oeste 0 -- -- 99
2020-06-12 08:00:00 12.9 21 Oeste 34 Oeste 0 -- -- 99
2020-06-12 07:00:00 13 18 Oeste 35 Oeste 0 -- -- 99
2020-06-12 06:00:00 13.1 21 Oeste 44 Noroeste 0.2 -- -- 99
2020-06-12 05:00:00 14.2 23 Oeste 37 Oeste 0 -- -- 99
2020-06-12 04:00:00 14.6 22 Oeste 42 Oeste 2 -- -- 99
2020-06-12 03:00:00 14.9 22 Oeste 46 Oeste 0 -- -- 99
2020-06-12 02:00:00 15.4 25 Oeste 44 Oeste 0 -- -- 95
2020-06-12 01:00:00 15.5 24 Oeste 41 Oeste 0 -- -- 96
2020-06-12 00:00:00 15.8 22 Oeste 50 Oeste 0 -- -- 87
2020-06-11 23:00:00 16.5 26 Oeste 46 Oeste 0 -- -- 74
2020-06-11 22:00:00 16.7 28 Oeste 53 Noroeste 0 -- -- 69
2020-06-11 21:00:00 18.2 30 Oeste 55 Oeste 0 -- -- 60
2020-06-11 20:00:00 20 32 Oeste 52 Oeste 0 -- -- 51
2020-06-11 19:00:00 21.4 31 Oeste 53 Oeste 0 -- -- 45
2020-06-11 18:00:00 22.3 26 Oeste 48 Noroeste 0 -- -- 43
2020-06-11 17:00:00 21.8 30 Oeste 50 Noroeste 0 -- -- 45
2020-06-11 16:00:00 22.1 28 Oeste 50 Oeste 0 -- -- 44
2020-06-11 15:00:00 21.6 25 Oeste 45 Oeste 0 -- -- 46
2020-06-11 14:00:00 20.8 26 Oeste 46 Oeste 0 -- -- 51
2020-06-11 13:00:00 19.8 23 Oeste 41 Noroeste 0 -- -- 55
2020-06-11 12:00:00 19.3 20 Oeste 34 Oeste 0 -- -- 60
2020-06-11 11:00:00 18.5 17 Oeste 28 Noroeste 0 -- -- 63
2020-06-11 10:00:00 17.1 15 Oeste 30 Oeste 0 -- -- 65
2020-06-11 09:00:00 16.4 14 Oeste 28 Oeste 0 -- -- 66
2020-06-11 08:00:00 15.2 10 Noroeste 17 Noroeste 0 -- -- 67
2020-06-11 07:00:00 15.1 10 Noroeste 19 Oeste 0 -- -- 65
2020-06-11 06:00:00 15.3 9 Noroeste 25 Noroeste 0 -- -- 61
2020-06-11 05:00:00 16.1 11 Oeste 35 Oeste 0 -- -- 56
2020-06-11 04:00:00 17.2 18 Oeste 38 Oeste 0 -- -- 51
2020-06-11 03:00:00 18.1 23 Oeste 54 Sudoeste 0 -- -- 49
2020-06-11 02:00:00 17.7 21 Oeste 38 Noroeste 0 -- -- 52
2020-06-11 01:00:00 17.4 19 Oeste 34 Noroeste 0 -- -- 56
2020-06-11 00:00:00 18.9 17 Noroeste 38 Oeste 0 -- -- 50
2020-06-10 23:00:00 20.5 21 Oeste 36 Oeste 0 -- -- 45
2020-06-10 22:00:00 21.7 18 Oeste 33 Noroeste 0 -- -- 44
2020-06-10 21:00:00 23.5 18 Oeste 31 Oeste 0 -- -- 37
2020-06-10 20:00:00 25.4 17 Oeste 33 Oeste 0 -- -- 34
2020-06-10 19:00:00 26.2 17 Noroeste 32 Noroeste 0 -- -- 32
2020-06-10 18:00:00 26.1 21 Noroeste 36 Noroeste 0 -- -- 32
2020-06-10 17:00:00 26.9 16 Oeste 30 Oeste 0 -- -- 31
2020-06-10 16:00:00 26 13 Noroeste 27 Oeste 0 -- -- 31
2020-06-10 15:00:00 26.1 12 Oeste 26 Oeste 0 -- -- 34
2020-06-10 14:00:00 25.1 14 Noroeste 23 Oeste 0 -- -- 37
2020-06-10 13:00:00 23.8 7 Noroeste 15 Noroeste 0 -- -- 41
2020-06-10 12:00:00 22.7 5 Oeste 14 Oeste 0 -- -- 43
2020-06-10 11:00:00 21.4 3 Oeste 10 Oeste 0 -- -- 43
2020-06-10 10:00:00 19.8 2 Noroeste 7 Noroeste 0 -- -- 44
2020-06-10 09:00:00 18.7 0 Calma 6 Nordeste 0 -- -- 44
2020-06-10 08:00:00 16.4 3 Norte 8 Noroeste 0 -- -- 46
2020-06-10 07:00:00 16.5 4 Noroeste 10 Noroeste 0 -- -- 45
2020-06-10 06:00:00 16.9 6 Noroeste 18 Noroeste 0 -- -- 45
2020-06-10 05:00:00 16.9 9 Noroeste 17 Noroeste 0 -- -- 47
2020-06-10 04:00:00 17.2 9 Noroeste 22 Oeste 0 -- -- 48
2020-06-10 03:00:00 16.8 9 Noroeste 26 Norte 0 -- -- 55
2020-06-10 02:00:00 17.2 10 Noroeste 27 Oeste 0 -- -- 55
2020-06-10 01:00:00 17.2 15 Noroeste 27 Noroeste 0 -- -- 62
2020-06-10 00:00:00 18.7 18 Oeste 31 Oeste 0 -- -- 57